createdAt,value
2023-05-17T00:00:19.813Z,9.50
2023-05-17T00:03:06.773Z,9.50
2023-05-17T00:05:55.054Z,9.50
2023-05-17T00:08:41.344Z,9.40
2023-05-17T00:11:27.655Z,9.40
2023-05-17T00:14:20.354Z,9.40
2023-05-17T00:17:07.246Z,9.30
2023-05-17T00:19:54.361Z,9.30
2023-05-17T00:22:43.348Z,9.30
2023-05-17T00:25:30.407Z,9.30
2023-05-17T00:28:17.454Z,9.20
2023-05-17T00:31:04.117Z,9.20
2023-05-17T00:33:50.400Z,9.20
2023-05-17T00:36:36.903Z,9.20
2023-05-17T00:39:24.635Z,9.20
2023-05-17T00:42:12.706Z,9.30
2023-05-17T00:45:01.597Z,9.30
2023-05-17T00:47:48.441Z,9.40
2023-05-17T00:50:36.057Z,9.30
2023-05-17T00:53:23.339Z,9.40
2023-05-17T00:56:12.017Z,9.30
2023-05-17T00:58:58.740Z,9.30
2023-05-17T01:01:45.603Z,9.30
2023-05-17T01:04:33.135Z,9.20
2023-05-17T01:07:19.766Z,9.20
2023-05-17T01:10:07.457Z,9.20
2023-05-17T01:13:04.625Z,9.20
2023-05-17T01:15:58.481Z,9.20
2023-05-17T01:18:49.835Z,9.20
2023-05-17T01:21:47.703Z,9.10
2023-05-17T01:24:45.768Z,9.10
2023-05-17T01:27:37.192Z,9.10
2023-05-17T01:30:26.617Z,9.00
2023-05-17T01:33:14.057Z,9.10
2023-05-17T01:36:00.875Z,9.10
2023-05-17T01:38:47.185Z,9.10
2023-05-17T01:41:40.968Z,9.10
2023-05-17T01:44:35.729Z,9.00
2023-05-17T01:47:43.342Z,9.00
2023-05-17T01:50:32.456Z,8.90
2023-05-17T01:53:23.802Z,8.90
2023-05-17T01:56:16.784Z,8.80
2023-05-17T01:59:05.659Z,8.90
2023-05-17T02:01:57.679Z,8.80
2023-05-17T02:04:44.116Z,8.80
2023-05-17T02:07:31.255Z,8.70
2023-05-17T02:10:17.740Z,8.60
2023-05-17T02:13:04.125Z,8.60
2023-05-17T02:15:50.690Z,8.60
2023-05-17T02:18:40.478Z,8.60
2023-05-17T02:21:28.346Z,8.50
2023-05-17T02:24:15.132Z,8.50
2023-05-17T02:27:01.997Z,8.60
2023-05-17T02:29:48.351Z,8.50
2023-05-17T02:32:34.930Z,8.50
2023-05-17T02:35:23.378Z,8.50
2023-05-17T02:38:09.784Z,8.50
2023-05-17T02:40:56.145Z,8.50
2023-05-17T02:43:42.481Z,8.50
2023-05-17T02:46:28.889Z,8.50
2023-05-17T02:49:15.176Z,8.50
2023-05-17T02:52:03.228Z,8.50
2023-05-17T02:54:50.037Z,8.40
2023-05-17T02:57:36.548Z,8.40
2023-05-17T03:00:22.951Z,8.40
2023-05-17T03:03:09.354Z,8.40
2023-05-17T03:05:56.136Z,8.30
2023-05-17T03:08:43.936Z,8.40
2023-05-17T03:11:30.469Z,8.40
2023-05-17T03:14:16.800Z,8.40
2023-05-17T03:17:03.244Z,8.40
2023-05-17T03:19:49.936Z,8.30
2023-05-17T03:22:37.090Z,8.40
2023-05-17T03:25:25.121Z,8.40
2023-05-17T03:28:12.067Z,8.40
2023-05-17T03:30:58.576Z,8.40
2023-05-17T03:33:45.584Z,8.40
2023-05-17T03:36:34.092Z,8.40
2023-05-17T03:39:20.438Z,8.40
2023-05-17T03:42:08.758Z,8.50
2023-05-17T03:44:55.541Z,8.50
2023-05-17T03:47:43.235Z,8.60
2023-05-17T03:50:29.844Z,8.60
2023-05-17T03:53:16.325Z,8.70
2023-05-17T03:56:02.776Z,8.70
2023-05-17T03:58:50.537Z,8.60
2023-05-17T04:01:37.192Z,8.70
2023-05-17T04:04:23.924Z,8.80
2023-05-17T04:07:10.910Z,8.90
2023-05-17T04:09:59.137Z,9.00
2023-05-17T04:12:45.579Z,9.20
2023-05-17T04:15:33.422Z,9.30
2023-05-17T04:18:19.875Z,9.60
2023-05-17T04:21:07.083Z,9.70
2023-05-17T04:23:54.153Z,9.90
2023-05-17T04:26:41.008Z,10.10
2023-05-17T04:29:27.362Z,10.40
2023-05-17T04:32:15.530Z,10.50
2023-05-17T04:35:01.936Z,10.70
2023-05-17T04:37:48.566Z,11.00
2023-05-17T04:40:35.591Z,11.20
2023-05-17T04:43:22.251Z,11.40
2023-05-17T04:46:08.711Z,11.60
2023-05-17T04:48:57.338Z,11.90
2023-05-17T04:51:44.055Z,12.20
2023-05-17T04:54:30.499Z,12.40
2023-05-17T04:57:17.094Z,12.70
2023-05-17T05:00:05.285Z,12.90
2023-05-17T05:02:52.019Z,13.20
2023-05-17T05:05:40.352Z,13.50
2023-05-17T05:08:26.841Z,13.80
2023-05-17T05:11:13.462Z,14.10
2023-05-17T05:14:00.400Z,14.40
2023-05-17T05:16:49.144Z,14.60
2023-05-17T05:19:35.511Z,14.80
2023-05-17T05:22:23.146Z,15.10
2023-05-17T05:25:10.519Z,15.20
2023-05-17T05:27:57.066Z,15.50
2023-05-17T05:30:43.503Z,15.80
2023-05-17T05:33:31.954Z,16.10
2023-05-17T05:36:18.747Z,16.20
2023-05-17T05:39:09.048Z,16.50
2023-05-17T05:41:55.737Z,16.70
2023-05-17T05:44:42.194Z,17.00
2023-05-17T05:47:28.574Z,17.40
2023-05-17T05:50:16.020Z,18.00
2023-05-17T05:53:17.208Z,18.60
2023-05-17T05:56:07.334Z,19.30
2023-05-17T05:58:53.679Z,20.00
2023-05-17T06:01:41.322Z,20.90
2023-05-17T06:04:36.725Z,21.40
2023-05-17T06:07:33.950Z,21.60
2023-05-17T06:10:20.631Z,21.60
2023-05-17T06:13:08.426Z,21.60
2023-05-17T06:15:55.419Z,21.70
2023-05-17T06:18:42.127Z,21.50
2023-05-17T06:21:28.974Z,20.70
2023-05-17T06:24:16.881Z,19.70
2023-05-17T06:29:51.933Z,18.10
2023-05-17T06:32:38.472Z,17.60
2023-05-17T06:35:25.072Z,17.70
2023-05-17T06:38:11.701Z,17.20
2023-05-17T06:40:58.565Z,16.70
2023-05-17T06:43:44.907Z,18.10
2023-05-17T06:46:32.507Z,19.60
2023-05-17T06:49:18.757Z,20.80
2023-05-17T06:52:06.069Z,20.10
2023-05-17T06:54:52.807Z,18.80
2023-05-17T06:57:39.606Z,17.70
2023-05-17T07:00:26.198Z,16.80
2023-05-17T07:03:14.371Z,17.30
2023-05-17T07:06:01.265Z,18.20
2023-05-17T07:08:47.696Z,19.20
2023-05-17T07:11:33.954Z,19.20
2023-05-17T07:14:20.392Z,18.50
2023-05-17T07:17:07.023Z,17.70
2023-05-17T07:19:55.215Z,17.10
2023-05-17T07:22:41.972Z,16.50
2023-05-17T07:25:29.077Z,16.40
2023-05-17T07:28:15.827Z,15.90
2023-05-17T07:31:02.659Z,15.90
2023-05-17T07:33:49.284Z,16.00
2023-05-17T07:36:37.037Z,16.70
2023-05-17T07:39:23.895Z,17.90
2023-05-17T07:42:10.252Z,18.20
2023-05-17T07:44:56.787Z,17.70
2023-05-17T07:47:43.394Z,17.40
2023-05-17T07:50:30.570Z,17.30
2023-05-17T07:53:20.899Z,17.30
2023-05-17T07:56:08.033Z,17.40
2023-05-17T07:58:54.463Z,17.90
2023-05-17T08:01:40.781Z,17.70
2023-05-17T08:04:27.287Z,17.50
2023-05-17T08:07:13.579Z,17.00
2023-05-17T08:10:01.505Z,17.20
2023-05-17T08:12:48.067Z,17.90
2023-05-17T08:15:34.416Z,18.40
2023-05-17T08:18:20.840Z,18.40
2023-05-17T08:21:07.705Z,18.20
2023-05-17T08:23:54.155Z,17.60
2023-05-17T08:26:42.338Z,16.90
2023-05-17T08:29:29.144Z,16.30
2023-05-17T08:32:15.365Z,15.90
2023-05-17T08:35:02.360Z,15.60
2023-05-17T08:37:48.704Z,15.50
2023-05-17T08:40:34.939Z,15.30
2023-05-17T08:43:27.368Z,15.80
2023-05-17T08:46:15.747Z,16.40
2023-05-17T08:49:04.143Z,16.80
2023-05-17T08:51:51.920Z,16.90
2023-05-17T08:54:38.783Z,16.90
2023-05-17T08:57:28.067Z,16.70
2023-05-17T09:00:20.607Z,16.40
2023-05-17T09:03:07.357Z,16.20
2023-05-17T09:05:54.641Z,16.30
2023-05-17T09:08:42.672Z,16.40
2023-05-17T09:11:31.321Z,17.00
2023-05-17T09:14:18.273Z,17.30
2023-05-17T09:17:06.846Z,17.20
2023-05-17T09:19:53.287Z,17.00
2023-05-17T09:22:39.645Z,16.60
2023-05-17T09:25:26.257Z,16.30
2023-05-17T09:28:12.815Z,16.70
2023-05-17T09:30:59.095Z,17.20
2023-05-17T09:33:48.613Z,17.50
2023-05-17T09:36:38.374Z,17.70
2023-05-17T09:39:27.159Z,17.50
2023-05-17T09:42:14.116Z,17.30
2023-05-17T09:45:01.686Z,17.20
2023-05-17T09:47:48.173Z,17.00
2023-05-17T09:50:36.267Z,16.90
2023-05-17T09:53:25.473Z,17.10
2023-05-17T09:56:12.262Z,17.10
2023-05-17T09:58:59.003Z,16.80
2023-05-17T10:01:46.536Z,16.70
2023-05-17T10:04:37.493Z,16.80
2023-05-17T10:07:26.881Z,17.10
2023-05-17T10:10:14.391Z,17.40
2023-05-17T10:13:02.004Z,17.50
2023-05-17T10:15:49.822Z,17.50
2023-05-17T10:18:37.214Z,17.30
2023-05-17T10:21:23.852Z,17.40
2023-05-17T10:24:12.957Z,17.80
2023-05-17T10:27:00.582Z,18.30
2023-05-17T10:29:50.571Z,18.10
2023-05-17T10:32:37.791Z,18.10
2023-05-17T10:35:27.286Z,17.90
2023-05-17T10:38:13.644Z,17.80
2023-05-17T10:41:03.131Z,18.10
2023-05-17T10:43:50.603Z,17.90
2023-05-17T10:46:37.824Z,17.80
2023-05-17T10:49:27.289Z,17.30
2023-05-17T10:52:16.534Z,17.30
2023-05-17T10:55:03.414Z,17.40
2023-05-17T10:58:16.937Z,17.50
2023-05-17T11:01:07.122Z,17.80
2023-05-17T11:03:56.640Z,17.90
2023-05-17T11:06:43.216Z,17.70
2023-05-17T11:09:33.600Z,17.60
2023-05-17T11:12:31.435Z,17.50
2023-05-17T11:15:26.401Z,17.20
2023-05-17T11:18:26.592Z,17.30
2023-05-17T11:21:17.712Z,17.50
2023-05-17T11:24:05.404Z,17.70
2023-05-17T11:26:51.738Z,17.80
2023-05-17T11:29:41.363Z,17.80
2023-05-17T11:32:30.440Z,17.70
2023-05-17T11:35:18.692Z,17.60
2023-05-17T11:38:15.998Z,17.60
2023-05-17T11:41:26.631Z,16.80
2023-05-17T11:44:14.494Z,16.40
2023-05-17T11:47:05.034Z,16.20
2023-05-17T11:49:56.414Z,16.50
2023-05-17T11:52:43.944Z,16.90
2023-05-17T11:55:31.036Z,16.90
2023-05-17T11:58:20.499Z,16.60
2023-05-17T12:01:06.900Z,16.30
2023-05-17T12:03:59.165Z,16.10
2023-05-17T12:06:46.758Z,15.90
2023-05-17T12:09:33.090Z,15.90
2023-05-17T12:12:21.764Z,15.90
2023-05-17T12:15:10.672Z,15.60
2023-05-17T12:17:57.398Z,15.40
2023-05-17T12:21:00.120Z,15.10
2023-05-17T12:23:52.382Z,15.20
2023-05-17T12:26:43.845Z,15.20
2023-05-17T12:29:31.508Z,15.20
2023-05-17T12:32:17.974Z,15.20
2023-05-17T12:35:04.926Z,15.40
2023-05-17T12:37:51.254Z,15.50
2023-05-17T12:40:43.364Z,15.50
2023-05-17T12:43:31.651Z,15.40
2023-05-17T12:46:19.713Z,15.40
2023-05-17T12:49:08.241Z,15.50
2023-05-17T12:51:54.821Z,15.50
2023-05-17T12:54:41.332Z,15.60
2023-05-17T12:57:29.223Z,15.40
2023-05-17T13:00:16.835Z,15.30
2023-05-17T13:03:03.269Z,15.30
2023-05-17T13:05:59.702Z,15.30
2023-05-17T13:08:46.133Z,15.40
2023-05-17T13:11:33.078Z,15.40
2023-05-17T13:17:18.175Z,15.40
2023-05-17T13:20:07.845Z,15.30
2023-05-17T13:22:56.336Z,15.30
2023-05-17T13:25:42.572Z,15.30
2023-05-17T13:28:29.279Z,15.30
2023-05-17T13:31:15.506Z,15.40
2023-05-17T13:34:03.159Z,15.40
2023-05-17T13:36:50.224Z,15.30
2023-05-17T13:39:36.647Z,15.30
2023-05-17T13:42:23.754Z,15.30
2023-05-17T13:45:12.349Z,15.40
2023-05-17T13:47:59.586Z,15.40
2023-05-17T13:50:47.388Z,15.50
2023-05-17T13:53:33.751Z,15.60
2023-05-17T13:56:20.205Z,15.30
2023-05-17T13:59:07.615Z,15.00
2023-05-17T14:01:54.075Z,15.10
2023-05-17T14:04:40.749Z,15.20
2023-05-17T14:07:28.644Z,15.40
2023-05-17T14:10:15.188Z,15.40
2023-05-17T14:13:01.873Z,15.50
2023-05-17T14:15:48.363Z,15.60
2023-05-17T14:18:34.835Z,15.80
2023-05-17T14:21:21.493Z,15.90
2023-05-17T14:24:09.638Z,16.00
2023-05-17T14:26:57.617Z,16.00
2023-05-17T14:29:46.530Z,15.90
2023-05-17T14:32:33.177Z,15.80
2023-05-17T14:35:20.028Z,15.90
2023-05-17T14:38:06.519Z,16.10
2023-05-17T14:40:54.603Z,16.20
2023-05-17T14:43:41.546Z,16.10
2023-05-17T14:46:28.125Z,15.90
2023-05-17T14:49:14.722Z,15.80
2023-05-17T14:52:01.485Z,15.80
2023-05-17T14:54:48.013Z,15.60
2023-05-17T14:57:36.052Z,15.60
2023-05-17T15:00:23.411Z,15.60
2023-05-17T15:03:10.380Z,15.50
2023-05-17T15:05:58.360Z,15.50
2023-05-17T15:08:45.013Z,15.50
2023-05-17T15:11:31.324Z,15.50
2023-05-17T15:14:22.152Z,15.50
2023-05-17T15:17:08.636Z,15.50
2023-05-17T15:19:55.125Z,15.40
2023-05-17T15:22:41.584Z,15.30
2023-05-17T15:25:28.568Z,15.40
2023-05-17T15:28:19.909Z,15.40
2023-05-17T15:31:10.673Z,16.40
2023-05-17T15:33:58.248Z,16.40
2023-05-17T15:36:44.796Z,16.30
2023-05-17T15:39:31.340Z,16.20
2023-05-17T15:42:17.922Z,15.80
2023-05-17T15:45:04.400Z,15.50
2023-05-17T15:47:52.791Z,15.40
2023-05-17T15:50:39.480Z,15.40
2023-05-17T15:53:26.360Z,15.50
2023-05-17T15:56:13.093Z,15.40
2023-05-17T15:59:01.191Z,15.30
2023-05-17T16:01:49.644Z,15.40
2023-05-17T16:04:37.581Z,15.50
2023-05-17T16:07:26.211Z,15.50
2023-05-17T16:10:12.436Z,15.50
2023-05-17T16:12:59.150Z,15.50
2023-05-17T16:15:45.791Z,15.50
2023-05-17T16:18:32.952Z,15.40
2023-05-17T16:21:21.002Z,15.40
2023-05-17T16:24:07.503Z,15.30
2023-05-17T16:26:54.188Z,15.10
2023-05-17T16:29:40.573Z,15.00
2023-05-17T16:32:27.259Z,14.90
2023-05-17T16:35:14.118Z,14.80
2023-05-17T16:38:03.204Z,14.80
2023-05-17T16:40:49.911Z,14.70
2023-05-17T16:43:36.207Z,14.80
2023-05-17T16:46:24.710Z,14.80
2023-05-17T16:49:11.430Z,14.80
2023-05-17T16:51:57.749Z,14.80
2023-05-17T16:54:45.931Z,14.80
2023-05-17T16:57:32.538Z,14.90
2023-05-17T17:00:19.981Z,14.90
2023-05-17T17:03:09.272Z,14.90
2023-05-17T17:05:56.249Z,14.90
2023-05-17T17:08:42.739Z,14.80
2023-05-17T17:11:30.650Z,14.80
2023-05-17T17:14:17.651Z,14.80
2023-05-17T17:17:04.192Z,14.70
2023-05-17T17:19:50.461Z,14.70
2023-05-17T17:22:36.923Z,14.70
2023-05-17T17:25:24.597Z,14.60
2023-05-17T17:28:12.571Z,14.60
2023-05-17T17:30:59.313Z,14.60
2023-05-17T17:33:45.646Z,14.60
2023-05-17T17:36:31.928Z,14.60
2023-05-17T17:39:18.350Z,14.60
2023-05-17T17:42:05.185Z,14.40
2023-05-17T17:44:52.964Z,14.40
2023-05-17T17:47:39.092Z,14.40
2023-05-17T17:50:26.048Z,14.40
2023-05-17T17:53:12.290Z,14.40
2023-05-17T17:55:59.076Z,14.40
2023-05-17T17:58:45.752Z,14.40
2023-05-17T18:01:35.188Z,14.30
2023-05-17T18:04:21.545Z,14.30
2023-05-17T18:07:08.085Z,14.20
2023-05-17T18:09:54.187Z,14.20
2023-05-17T18:12:40.917Z,14.10
2023-05-17T18:15:27.564Z,14.20
2023-05-17T18:18:15.518Z,14.10
2023-05-17T18:21:02.040Z,14.00
2023-05-17T18:23:48.736Z,13.90
2023-05-17T18:26:35.044Z,13.90
2023-05-17T18:29:21.394Z,13.80
2023-05-17T18:32:08.798Z,13.70
2023-05-17T18:34:56.824Z,13.60
2023-05-17T18:37:43.125Z,13.60
2023-05-17T18:40:29.822Z,13.60
2023-05-17T18:43:18.618Z,13.60
2023-05-17T18:46:07.918Z,13.40
2023-05-17T18:48:54.393Z,13.30
2023-05-17T18:51:42.286Z,13.40
2023-05-17T18:54:29.066Z,13.30
2023-05-17T18:57:15.433Z,13.30
2023-05-17T19:00:01.720Z,13.20
2023-05-17T19:02:48.673Z,13.20
2023-05-17T19:05:34.919Z,13.10
2023-05-17T19:08:25.208Z,13.10
2023-05-17T19:11:11.640Z,13.00
2023-05-17T19:13:58.157Z,12.90
2023-05-17T19:16:45.314Z,12.80
2023-05-17T19:19:32.062Z,12.70
2023-05-17T19:22:18.260Z,12.60
2023-05-17T19:25:07.368Z,12.60
2023-05-17T19:27:53.695Z,12.50
2023-05-17T19:30:40.494Z,12.50
2023-05-17T19:33:26.723Z,12.50
2023-05-17T19:36:13.149Z,12.40
2023-05-17T19:38:59.576Z,12.30
2023-05-17T19:41:47.185Z,12.20
2023-05-17T19:44:33.632Z,12.20
2023-05-17T19:47:20.097Z,12.20
2023-05-17T19:50:07.106Z,12.20
2023-05-17T19:52:54.717Z,12.20
2023-05-17T19:55:41.580Z,12.20
2023-05-17T19:58:29.679Z,12.10
2023-05-17T20:01:15.966Z,12.10
2023-05-17T20:04:02.385Z,12.00
2023-05-17T20:06:49.091Z,12.00
2023-05-17T20:09:36.233Z,12.00
2023-05-17T20:12:24.080Z,11.90
2023-05-17T20:15:12.654Z,11.90
2023-05-17T20:17:59.393Z,11.90
2023-05-17T20:20:45.947Z,11.80
2023-05-17T20:23:32.239Z,11.90
2023-05-17T20:26:25.643Z,11.90
2023-05-17T20:29:12.356Z,11.80
2023-05-17T20:32:00.042Z,11.90
2023-05-17T20:34:46.821Z,11.90
2023-05-17T20:37:33.785Z,11.80
2023-05-17T20:40:20.461Z,11.80
2023-05-17T20:43:09.696Z,11.70
2023-05-17T20:45:56.442Z,11.70
2023-05-17T20:48:46.438Z,11.70
2023-05-17T20:51:32.919Z,11.60
2023-05-17T20:54:19.709Z,11.60
2023-05-17T20:57:06.578Z,11.50
2023-05-17T20:59:52.962Z,11.40
2023-05-17T21:02:39.588Z,11.50
2023-05-17T21:05:28.346Z,11.50
2023-05-17T21:08:14.813Z,11.40
2023-05-17T21:11:01.460Z,11.30
2023-05-17T21:13:47.891Z,11.10
2023-05-17T21:16:35.367Z,11.10
2023-05-17T21:19:22.038Z,11.10
2023-05-17T21:22:10.024Z,11.00
2023-05-17T21:24:56.337Z,11.00
2023-05-17T21:27:42.750Z,10.90
2023-05-17T21:30:29.414Z,10.90
2023-05-17T21:33:15.778Z,10.80
2023-05-17T21:36:02.231Z,10.80
2023-05-17T21:38:52.784Z,10.70
2023-05-17T21:41:39.401Z,10.70
2023-05-17T21:44:25.789Z,10.60
2023-05-17T21:47:12.105Z,10.50
2023-05-17T21:49:58.388Z,10.40
2023-05-17T21:52:44.637Z,10.40
2023-05-17T21:55:36.960Z,10.40
2023-05-17T21:58:37.417Z,10.30
2023-05-17T22:01:24.252Z,10.30
2023-05-17T22:04:10.597Z,10.30
2023-05-17T22:06:57.645Z,10.20
2023-05-17T22:09:45.600Z,10.10
2023-05-17T22:12:34.918Z,10.10
2023-05-17T22:15:21.956Z,10.10
2023-05-17T22:18:09.245Z,10.00
2023-05-17T22:20:59.113Z,10.00
2023-05-17T22:23:46.065Z,9.90
2023-05-17T22:26:32.419Z,9.90
2023-05-17T22:29:20.040Z,9.80
2023-05-17T22:32:06.657Z,9.80
2023-05-17T22:34:53.821Z,9.70
2023-05-17T22:37:42.611Z,9.70
2023-05-17T22:40:29.301Z,9.70
2023-05-17T22:43:16.987Z,9.70
2023-05-17T22:46:05.048Z,9.60
2023-05-17T22:48:52.758Z,9.70
2023-05-17T22:51:40.308Z,9.70
2023-05-17T22:54:27.711Z,9.70
2023-05-17T22:57:13.952Z,9.70
2023-05-17T23:00:00.503Z,9.70
2023-05-17T23:02:48.298Z,9.60
2023-05-17T23:05:36.699Z,9.70
2023-05-17T23:08:23.359Z,9.70
2023-05-17T23:11:09.933Z,9.70
2023-05-17T23:13:57.082Z,9.80
2023-05-17T23:16:43.686Z,9.70
2023-05-17T23:19:32.386Z,9.60
2023-05-17T23:22:19.692Z,9.50
2023-05-17T23:25:06.837Z,9.40
2023-05-17T23:27:54.040Z,9.40
2023-05-17T23:30:40.645Z,9.40
2023-05-17T23:33:30.809Z,9.40
2023-05-17T23:36:20.597Z,9.20
2023-05-17T23:39:07.274Z,9.30
2023-05-17T23:41:53.644Z,9.20
2023-05-17T23:44:41.986Z,9.10
2023-05-17T23:47:28.987Z,9.10
2023-05-17T23:50:15.733Z,9.20
2023-05-17T23:53:03.629Z,9.10
2023-05-17T23:55:50.316Z,9.20
2023-05-17T23:58:36.674Z,9.30
